Time;durP1;ratioP1;P1;durP2;ratioP2;P2;SDS_P1;SDS_P2;PMS_P1;PMS_P2;Temp;Humidity;BMP_temperature;BMP_pressure;BME280_temperature;BME280_humidity;BME280_pressure;Samples;Min_cycle;Max_cycle;Signal;HPM_P1;HPM_P2
2020/12/13 00:00:47;;;;;;;34.70;18.98;;;;;;;-1.64;83.66;99532.56;1735492;82;21173;-60
2020/12/13 00:03:15;;;;;;;34.50;18.25;;;;;;;-1.66;83.67;99538.59;1712188;82;21354;-60
2020/12/13 00:05:43;;;;;;;33.85;17.85;;;;;;;-1.65;83.67;99537.58;1686443;82;21160;-60
2020/12/13 00:08:11;;;;;;;37.20;18.73;;;;;;;-1.64;83.63;99535.73;1711437;82;21227;-60
2020/12/13 00:10:39;;;;;;;35.83;19.02;;;;;;;-1.65;83.69;99533.57;1710976;82;21601;-61
2020/12/13 00:13:07;;;;;;;33.25;17.10;;;;;;;-1.69;83.74;99526.98;1701666;83;21295;-60
2020/12/13 00:15:36;;;;;;;33.85;17.92;;;;;;;-1.60;83.60;99532.98;1694433;84;21557;-61
2020/12/13 00:18:04;;;;;;;36.05;18.57;;;;;;;-1.62;83.61;99531.84;1687009;84;21770;-60
2020/12/13 00:20:32;;;;;;;36.50;19.40;;;;;;;-1.65;83.84;99534.08;1711739;82;21633;-61
2020/12/13 00:22:59;;;;;;;38.75;19.12;;;;;;;-1.63;83.78;99540.86;1718003;82;21171;-61
2020/12/13 00:25:28;;;;;;;28.73;14.40;;;;;;;-1.74;83.99;99521.94;1707559;84;21263;-61
2020/12/13 00:28:05;;;;;;;41.40;20.88;;;;;;;-1.56;83.70;99539.58;1711108;84;21187;-60
2020/12/13 00:30:38;;;;;;;49.90;23.62;;;;;;;-1.60;83.83;99535.16;1689928;82;21576;-60
2020/12/13 00:33:06;;;;;;;43.83;20.60;;;;;;;-1.66;84.07;99535.09;1712959;82;21169;-60
2020/12/13 00:35:34;;;;;;;47.27;22.85;;;;;;;-1.65;84.06;99536.24;1709889;82;21173;-61
2020/12/13 00:38:02;;;;;;;43.17;22.22;;;;;;;-1.67;84.17;99527.63;1739886;82;21179;-61
2020/12/13 00:40:30;;;;;;;36.95;17.15;;;;;;;-1.55;83.88;99522.02;1734084;82;21181;-60
2020/12/13 00:42:58;;;;;;;37.58;19.20;;;;;;;-1.54;83.90;99524.17;1724657;82;21176;-61
2020/12/13 00:45:25;;;;;;;37.45;19.05;;;;;;;-1.62;84.17;99519.83;1733856;82;21157;-60
2020/12/13 00:47:55;;;;;;;40.58;20.85;;;;;;;-1.60;84.06;99520.98;1698548;82;21513;-61
2020/12/13 00:51:06;;;;;;;35.73;18.62;;;;;;;-1.55;84.16;99511.84;1812246;79;23570;-60
2020/12/13 00:53:34;;;;;;;32.70;18.57;;;;;;;-1.63;84.30;99512.03;1754156;80;21608;-61
2020/12/13 00:56:02;;;;;;;34.38;18.12;;;;;;;-1.61;84.23;99510.80;1715427;81;21592;-61
2020/12/13 00:58:31;;;;;;;30.80;16.23;;;;;;;-1.64;84.37;99521.88;1735018;80;21177;-60
2020/12/13 01:00:59;;;;;;;36.25;19.10;;;;;;;-1.55;84.18;99510.00;1725761;82;21577;-61
2020/12/13 01:03:28;;;;;;;37.75;19.80;;;;;;;-1.58;84.31;99517.08;1752869;80;21163;-60
2020/12/13 01:05:56;;;;;;;39.20;19.92;;;;;;;-1.58;84.38;99510.41;1754820;81;21133;-60
2020/12/13 01:08:24;;;;;;;36.08;18.35;;;;;;;-1.53;84.30;99515.98;1726681;81;21161;-60
2020/12/13 01:10:52;;;;;;;40.15;19.30;;;;;;;-1.57;84.45;99510.73;1756154;81;21689;-60
2020/12/13 01:13:20;;;;;;;34.33;17.57;;;;;;;-1.59;84.58;99510.08;1729541;80;21178;-60
2020/12/13 01:15:50;;;;;;;32.73;17.27;;;;;;;-1.60;84.66;99509.80;1752404;81;21172;-60
2020/12/13 01:18:18;;;;;;;36.70;18.98;;;;;;;-1.52;84.42;99508.27;1735564;80;22087;-60
2020/12/13 01:20:46;;;;;;;32.00;17.15;;;;;;;-1.58;84.67;99505.58;1723535;80;21645;-61
2020/12/13 01:23:13;;;;;;;35.95;17.57;;;;;;;-1.59;84.73;99504.74;1749333;80;21624;-60
2020/12/13 01:25:42;;;;;;;33.95;18.80;;;;;;;-1.58;84.67;99506.40;1752488;81;21622;-60
2020/12/13 01:28:09;;;;;;;30.00;16.32;;;;;;;-1.59;84.68;99506.08;1747790;80;21635;-60
2020/12/13 01:30:38;;;;;;;32.17;16.97;;;;;;;-1.58;84.74;99505.58;1725784;82;21184;-61
2020/12/13 01:33:06;;;;;;;27.90;15.88;;;;;;;-1.48;84.51;99498.52;1725304;82;21594;-60
2020/12/13 01:35:34;;;;;;;33.35;17.00;;;;;;;-1.54;84.72;99494.81;1744398;81;21584;-60
2020/12/13 01:38:02;;;;;;;36.90;19.82;;;;;;;-1.56;84.87;99488.33;1727086;81;21186;-61
2020/12/13 01:40:30;;;;;;;32.28;16.95;;;;;;;-1.56;84.86;99490.20;1755896;80;21645;-60
2020/12/13 01:42:58;;;;;;;33.28;18.40;;;;;;;-1.53;84.79;99493.29;1724975;81;21161;-61
2020/12/13 01:45:26;;;;;;;35.92;19.80;;;;;;;-1.47;84.80;99492.16;1760886;81;21635;-61
2020/12/13 01:47:54;;;;;;;30.08;17.50;;;;;;;-1.43;84.65;99494.23;1731094;81;21173;-60
2020/12/13 01:55:55;;;;;;;36.00;20.45;;;;;;;-1.38;84.81;99492.31;1818760;79;22515;-59
2020/12/13 01:58:27;;;;;;;36.48;18.15;;;;;;;-1.46;84.98;99481.30;1770134;80;21121;-58
2020/12/13 02:00:59;;;;;;;38.78;22.58;;;;;;;-1.44;84.96;99478.41;1763129;80;21180;-58
2020/12/13 02:03:54;;;;;;;43.13;24.23;;;;;;;-1.38;84.83;99478.42;1761917;80;21132;-60
2020/12/13 02:06:25;;;;;;;42.75;22.22;;;;;;;-1.41;85.04;99476.66;1735295;80;21164;-61
2020/12/13 02:08:53;;;;;;;38.25;21.48;;;;;;;-1.44;85.22;99479.74;1762251;81;21280;-60
2020/12/13 02:11:21;;;;;;;38.25;20.95;;;;;;;-1.37;85.00;99491.27;1735825;80;21568;-60
2020/12/13 02:13:50;;;;;;;31.65;19.57;;;;;;;-1.41;85.19;99485.50;1762564;81;21157;-61
2020/12/13 02:16:18;;;;;;;41.05;22.20;;;;;;;-1.38;85.14;99484.30;1762260;81;21907;-60
2020/12/13 02:18:46;;;;;;;33.42;19.20;;;;;;;-1.31;84.99;99489.15;1762243;81;21184;-60
2020/12/13 02:21:14;;;;;;;36.68;20.43;;;;;;;-1.38;85.20;99484.30;1733936;81;21193;-60
2020/12/13 02:23:44;;;;;;;34.15;20.17;;;;;;;-1.35;85.21;99494.58;1764586;80;21546;-60
2020/12/13 02:26:14;;;;;;;32.13;17.30;;;;;;;-1.29;85.09;99492.42;1748053;81;21197;-61
2020/12/13 02:28:43;;;;;;;31.90;18.00;;;;;;;-1.35;85.30;99493.23;1747948;81;21311;-60
2020/12/13 02:31:11;;;;;;;31.40;17.90;;;;;;;-1.30;85.24;99494.27;1758775;80;21141;-60
2020/12/13 02:33:41;;;;;;;32.95;18.20;;;;;;;-1.22;84.99;99489.27;1766767;80;21161;-60
2020/12/13 02:36:09;;;;;;;33.00;18.80;;;;;;;-1.28;85.25;99498.09;1764950;81;21546;-60
2020/12/13 02:38:37;;;;;;;31.40;17.50;;;;;;;-1.25;85.23;99503.02;1764980;81;21200;-61
2020/12/13 02:41:05;;;;;;;27.95;15.88;;;;;;;-1.19;84.98;99493.69;1750364;80;21142;-60
2020/12/13 02:43:33;;;;;;;28.25;15.88;;;;;;;-1.24;85.17;99491.33;1762882;80;21129;-60
2020/12/13 02:46:01;;;;;;;32.90;18.82;;;;;;;-1.22;85.09;99483.92;1767778;81;21137;-60
2020/12/13 02:48:29;;;;;;;26.15;15.58;;;;;;;-1.17;84.98;99484.15;1762418;81;21627;-61
2020/12/13 02:50:57;;;;;;;24.52;15.60;;;;;;;-1.21;85.18;99483.73;1748085;80;21596;-60
2020/12/13 02:53:26;;;;;;;29.70;18.50;;;;;;;-1.15;85.09;99480.75;1765508;80;21549;-60
2020/12/13 02:55:54;;;;;;;33.15;21.00;;;;;;;-1.09;84.93;99489.28;1747251;80;21157;-60
2020/12/13 02:58:22;;;;;;;28.02;16.57;;;;;;;-1.17;85.27;99483.61;1721254;83;21190;-60
2020/12/13 03:00:50;;;;;;;29.30;17.92;;;;;;;-1.09;85.15;99478.59;1704322;83;21209;-60
2020/12/13 03:03:17;;;;;;;27.30;16.60;;;;;;;-1.00;84.94;99476.05;1716371;83;21142;-60
2020/12/13 03:05:46;;;;;;;27.80;16.85;;;;;;;-1.04;85.16;99481.49;1707131;83;21190;-60
2020/12/13 03:08:14;;;;;;;29.02;16.95;;;;;;;-1.05;85.32;99478.50;1666994;83;21243;-61
2020/12/13 03:10:44;;;;;;;27.90;17.95;;;;;;;-0.92;85.02;99477.17;1695176;83;21209;-61
2020/12/13 03:13:11;;;;;;;27.10;17.25;;;;;;;-0.95;85.19;99483.44;1703001;83;21314;-61
2020/12/13 03:15:40;;;;;;;23.02;14.98;;;;;;;-1.03;85.56;99495.17;1702960;84;21184;-60
2020/12/13 03:18:08;;;;;;;26.82;16.55;;;;;;;-0.90;85.26;99500.52;1703119;83;21230;-61
2020/12/13 03:20:36;;;;;;;23.45;14.58;;;;;;;-0.84;85.17;99502.38;1700892;83;21194;-60
2020/12/13 03:23:04;;;;;;;27.77;17.02;;;;;;;-0.87;85.49;99502.78;1698948;83;21608;-60
2020/12/13 03:25:32;;;;;;;23.02;14.93;;;;;;;-0.86;85.70;99498.27;1684844;83;21209;-61
2020/12/13 03:28:00;;;;;;;22.65;13.60;;;;;;;-0.71;85.27;99497.57;1716330;83;21636;-60
2020/12/13 03:30:28;;;;;;;24.52;15.78;;;;;;;-0.74;85.42;99488.09;1680659;84;21134;-61
2020/12/13 03:32:56;;;;;;;24.50;14.80;;;;;;;-0.79;85.65;99482.55;1710007;83;21180;-61
2020/12/13 03:35:24;;;;;;;21.45;14.63;;;;;;;-0.73;85.60;99479.05;1720425;83;21748;-60
2020/12/13 03:37:53;;;;;;;21.97;13.15;;;;;;;-0.62;85.33;99472.27;1720800;82;21195;-61
2020/12/13 03:40:21;;;;;;;20.25;12.68;;;;;;;-0.66;85.57;99469.69;1717839;83;21546;-61
2020/12/13 03:42:49;;;;;;;20.02;12.37;;;;;;;-0.72;85.82;99466.00;1698366;82;21177;-60
2020/12/13 03:45:17;;;;;;;22.40;15.05;;;;;;;-0.60;85.54;99458.16;1722954;82;21250;-60
2020/12/13 03:47:47;;;;;;;26.30;16.37;;;;;;;-0.57;85.46;99457.77;1692382;83;21153;-60
2020/12/13 03:50:15;;;;;;;23.42;13.30;;;;;;;-0.65;85.87;99461.98;1695557;83;21237;-61
2020/12/13 03:52:42;;;;;;;18.65;12.98;;;;;;;-0.56;85.82;99464.75;1698855;83;21637;-61
2020/12/13 03:55:10;;;;;;;20.92;12.05;;;;;;;-0.56;85.57;99454.88;1722229;83;21570;-60
2020/12/13 03:57:38;;;;;;;24.57;14.55;;;;;;;-0.59;85.95;99469.17;1716981;82;21187;-60
2020/12/13 04:00:06;;;;;;;19.77;12.65;;;;;;;-0.50;85.72;99464.73;1727213;82;21169;-60
2020/12/13 04:02:33;;;;;;;25.00;16.17;;;;;;;-0.41;85.46;99475.23;1736871;82;21206;-61
2020/12/13 04:05:01;;;;;;;23.45;13.70;;;;;;;-0.47;85.70;99469.38;1733475;82;21305;-60
2020/12/13 04:07:29;;;;;;;23.55;13.70;;;;;;;-0.39;85.54;99468.63;1686781;83;21630;-61
2020/12/13 04:09:57;;;;;;;20.20;12.98;;;;;;;-0.26;85.16;99478.51;1723538;83;21201;-61
2020/12/13 04:12:25;;;;;;;22.98;15.32;;;;;;;-0.31;85.24;99479.12;1724542;83;21185;-61
2020/12/13 04:14:53;;;;;;;23.57;14.47;;;;;;;-0.37;85.54;99479.14;1714026;82;21160;-60
2020/12/13 04:17:21;;;;;;;22.70;14.75;;;;;;;-0.30;85.40;99483.97;1723327;83;21203;-60
2020/12/13 04:19:48;;;;;;;23.98;14.38;;;;;;;-0.19;84.97;99477.98;1723423;83;21189;-60
2020/12/13 04:22:16;;;;;;;25.32;14.95;;;;;;;-0.25;85.11;99487.64;1699006;83;21648;-60
2020/12/13 04:24:44;;;;;;;24.92;15.10;;;;;;;-0.33;85.38;99501.77;1712283;82;21177;-61
2020/12/13 04:27:12;;;;;;;24.90;14.15;;;;;;;-0.27;85.30;99492.91;1735749;82;21203;-60
2020/12/13 04:29:41;;;;;;;19.62;12.55;;;;;;;-0.13;84.85;99493.19;1692284;85;21189;-61
2020/12/13 04:32:10;;;;;;;23.95;15.35;;;;;;;-0.17;84.99;99500.81;1720186;83;21190;-61
2020/12/13 04:34:38;;;;;;;23.65;14.68;;;;;;;-0.25;85.35;99489.52;1708451;83;21201;-61
2020/12/13 04:37:06;;;;;;;22.82;14.33;;;;;;;-0.21;85.36;99484.87;1660276;84;21230;-61
2020/12/13 04:39:36;;;;;;;24.55;16.42;;;;;;;-0.12;85.18;99476.11;1747742;82;21188;-60
2020/12/13 04:42:04;;;;;;;23.90;15.15;;;;;;;-0.16;85.48;99482.40;1728512;82;21353;-61
2020/12/13 04:44:32;;;;;;;22.00;14.33;;;;;;;-0.19;85.69;99476.64;1709604;83;21221;-61
2020/12/13 04:47:06;;;;;;;22.77;14.05;;;;;;;-0.04;85.38;99476.70;1712582;83;21195;-61
2020/12/13 04:49:35;;;;;;;20.85;13.98;;;;;;;0.05;85.19;99469.78;1687451;84;21165;-61
2020/12/13 04:52:04;;;;;;;23.92;15.70;;;;;;;0.00;85.43;99476.59;1681502;84;21207;-60
2020/12/13 04:54:32;;;;;;;16.45;11.45;;;;;;;-0.02;85.55;99479.17;1728107;82;21442;-61
2020/12/13 04:57:00;;;;;;;18.95;12.98;;;;;;;0.11;85.18;99472.44;1695888;83;21183;-61
2020/12/13 04:59:28;;;;;;;25.10;15.35;;;;;;;0.16;85.08;99483.34;1688109;83;21652;-61
2020/12/13 05:01:56;;;;;;;24.12;14.95;;;;;;;0.11;85.38;99484.48;1712870;82;21185;-61
2020/12/13 05:04:25;;;;;;;20.20;13.00;;;;;;;0.10;85.53;99482.03;1750737;82;21648;-61
2020/12/13 05:06:54;;;;;;;22.93;14.68;;;;;;;0.24;85.19;99484.47;1753599;80;21208;-61
2020/12/13 05:09:21;;;;;;;20.70;14.05;;;;;;;0.23;85.16;99473.95;1752071;80;21110;-61
2020/12/13 05:11:50;;;;;;;20.92;13.28;;;;;;;0.16;85.46;99479.84;1697762;80;21169;-61
2020/12/13 05:14:18;;;;;;;22.77;14.03;;;;;;;0.22;85.43;99483.84;1756882;81;21178;-62
2020/12/13 05:16:47;;;;;;;19.52;13.15;;;;;;;0.29;85.24;99476.60;1712315;83;21186;-61
2020/12/13 05:19:15;;;;;;;22.82;13.78;;;;;;;0.22;85.56;99475.80;1724146;82;21163;-61
2020/12/13 05:21:43;;;;;;;22.82;14.38;;;;;;;0.25;85.59;99476.72;1752228;80;21617;-61
2020/12/13 05:24:11;;;;;;;22.42;14.80;;;;;;;0.39;85.20;99480.19;1751644;80;21114;-61
2020/12/13 05:26:39;;;;;;;21.23;13.55;;;;;;;0.36;85.31;99476.06;1739759;80;21643;-61
2020/12/13 05:29:07;;;;;;;22.30;14.65;;;;;;;0.31;85.61;99484.44;1753118;80;21169;-60
2020/12/13 05:31:41;;;;;;;25.12;15.38;;;;;;;0.35;85.59;99481.64;1751258;80;21169;-61
2020/12/13 05:34:15;;;;;;;26.02;16.48;;;;;;;0.37;85.54;99483.06;1724516;82;21189;-61
2020/12/13 05:36:43;;;;;;;25.40;15.45;;;;;;;0.29;85.91;99475.77;1751873;80;21149;-60
2020/12/13 05:39:12;;;;;;;24.70;15.13;;;;;;;0.35;85.83;99485.15;1761620;80;21577;-61
2020/12/13 05:41:40;;;;;;;26.05;16.65;;;;;;;0.44;85.53;99481.18;1747707;80;21173;-61
2020/12/13 05:47:21;;;;;;;25.50;15.25;;;;;;;0.32;86.02;99475.37;1750920;82;21646;-61
2020/12/13 05:52:30;;;;;;;28.10;18.02;;;;;;;0.45;85.83;99474.80;1802675;79;21822;-59
2020/12/13 05:54:58;;;;;;;26.23;16.00;;;;;;;0.34;86.06;99475.97;1711336;83;21624;-59
2020/12/13 05:57:27;;;;;;;26.57;16.90;;;;;;;0.38;86.03;99471.84;1727492;82;21192;-59
2020/12/13 05:59:55;;;;;;;27.55;16.87;;;;;;;0.48;85.65;99473.55;1740797;82;21148;-59
2020/12/13 06:02:23;;;;;;;29.02;18.10;;;;;;;0.43;85.81;99462.13;1727129;82;21181;-59
2020/12/13 06:04:55;;;;;;;28.38;17.98;;;;;;;0.39;85.99;99474.29;1756067;82;21152;-59
2020/12/13 06:07:24;;;;;;;28.80;17.42;;;;;;;0.48;85.77;99470.86;1755969;80;21169;-61
2020/12/13 06:09:54;;;;;;;29.07;18.05;;;;;;;0.50;85.59;99474.97;1752328;82;21274;-61
2020/12/13 06:12:22;;;;;;;30.37;18.35;;;;;;;0.42;85.87;99479.76;1753061;80;21173;-61
2020/12/13 06:14:51;;;;;;;28.52;17.82;;;;;;;0.48;85.78;99483.75;1734673;82;21132;-61
2020/12/13 06:17:19;;;;;;;30.08;18.87;;;;;;;0.54;85.57;99485.25;1725996;83;21202;-61
2020/12/13 06:19:48;;;;;;;30.48;18.67;;;;;;;0.50;85.67;99485.67;1690666;83;21716;-61
2020/12/13 06:22:16;;;;;;;27.90;18.55;;;;;;;0.41;85.97;99484.29;1728366;82;21190;-62
2020/12/13 06:24:45;;;;;;;30.55;19.67;;;;;;;0.53;85.70;99480.44;1755797;81;21145;-62
2020/12/13 06:27:13;;;;;;;29.27;17.87;;;;;;;0.55;85.49;99477.52;1755980;80;21198;-61
2020/12/13 06:29:42;;;;;;;26.20;16.25;;;;;;;0.50;85.67;99482.17;1742496;82;21425;-61
2020/12/13 06:32:10;;;;;;;25.23;16.95;;;;;;;0.55;85.47;99481.03;1741819;82;21194;-61
2020/12/13 06:34:45;;;;;;;29.67;17.07;;;;;;;0.60;85.23;99486.58;1749987;82;21168;-61
2020/12/13 06:37:13;;;;;;;24.65;15.72;;;;;;;0.55;85.32;99488.24;1726777;82;21626;-61
2020/12/13 06:39:42;;;;;;;27.55;15.98;;;;;;;0.52;85.50;99481.46;1726770;82;21196;-61
2020/12/13 06:42:13;;;;;;;27.15;16.37;;;;;;;0.61;85.20;99483.36;1754643;80;21643;-61
2020/12/13 06:44:40;;;;;;;25.12;14.98;;;;;;;0.64;84.98;99474.92;1727324;82;21539;-61
2020/12/13 06:47:24;;;;;;;26.33;16.65;;;;;;;0.59;85.16;99487.61;1728920;82;21575;-61
2020/12/13 06:49:52;;;;;;;26.50;16.20;;;;;;;0.63;85.10;99485.33;1738311;82;21121;-61
2020/12/13 06:52:34;;;;;;;24.12;16.00;;;;;;;0.70;84.84;99484.77;1698348;82;21646;-61
2020/12/13 06:55:06;;;;;;;26.00;16.75;;;;;;;0.63;85.03;99485.33;1720509;82;21655;-61
2020/12/13 06:57:34;;;;;;;27.02;16.70;;;;;;;0.57;85.24;99493.68;1732334;82;21603;-61
2020/12/13 07:00:07;;;;;;;36.73;18.80;;;;;;;0.71;84.89;99483.75;1732417;82;21569;-61
2020/12/13 07:02:56;;;;;;;30.12;17.30;;;;;;;0.71;84.88;99481.86;1713561;82;21170;-62
2020/12/13 07:05:54;;;;;;;33.20;19.20;;;;;;;0.61;85.18;99489.55;1729802;82;21169;-61
2020/12/13 07:08:23;;;;;;;34.33;18.98;;;;;;;0.65;85.17;99488.59;1736046;81;21178;-61
2020/12/13 07:10:52;;;;;;;37.30;21.15;;;;;;;0.68;85.05;99483.64;1732119;82;21620;-61
2020/12/13 07:13:23;;;;;;;40.85;21.97;;;;;;;0.56;85.51;99488.55;1692362;82;21157;-61
2020/12/13 07:18:32;;;;;;;35.92;19.75;;;;;;;0.70;85.42;99482.09;1791547;79;23220;-59
2020/12/13 07:21:01;;;;;;;39.58;20.45;;;;;;;0.62;85.45;99489.03;1727060;81;21456;-59
2020/12/13 07:23:29;;;;;;;36.30;20.85;;;;;;;0.53;85.79;99493.83;1754683;80;21125;-59
2020/12/13 07:25:57;;;;;;;38.85;22.58;;;;;;;0.56;85.87;99490.72;1725238;82;21125;-59
2020/12/13 07:28:24;;;;;;;45.83;25.15;;;;;;;0.60;85.70;99499.15;1753715;80;21178;-59
2020/12/13 07:30:52;;;;;;;42.83;22.15;;;;;;;0.53;85.94;99498.36;1702340;82;21149;-59
2020/12/13 07:33:21;;;;;;;49.13;23.87;;;;;;;0.44;86.24;99498.59;1679698;82;21203;-59
2020/12/13 07:35:49;;;;;;;49.05;23.10;;;;;;;0.56;85.99;99496.08;1755154;82;21197;-59
2020/12/13 07:38:16;;;;;;;46.85;25.90;;;;;;;0.61;85.74;99498.09;1749902;81;21129;-59
2020/12/13 07:40:45;;;;;;;51.30;26.77;;;;;;;0.53;86.10;99490.33;1754309;82;21153;-59
2020/12/13 07:43:12;;;;;;;41.25;22.25;;;;;;;0.53;86.20;99499.70;1726481;81;21161;-59
2020/12/13 07:45:40;;;;;;;44.48;25.68;;;;;;;0.63;85.86;99499.55;1724185;82;21457;-59
2020/12/13 07:48:09;;;;;;;50.88;27.13;;;;;;;0.54;86.12;99495.45;1706023;81;21603;-59
2020/12/13 07:50:44;;;;;;;40.60;22.80;;;;;;;0.52;86.25;99504.74;1760656;81;21204;-59
2020/12/13 07:53:25;;;;;;;48.33;26.77;;;;;;;0.60;86.13;99507.19;1757093;80;21160;-59
2020/12/13 07:55:53;;;;;;;42.83;22.73;;;;;;;0.60;86.02;99511.20;1751787;82;21133;-61
2020/12/13 07:58:22;;;;;;;45.10;22.42;;;;;;;0.54;86.25;99507.50;1754297;81;21173;-61
2020/12/13 08:00:50;;;;;;;44.60;25.25;;;;;;;0.55;86.25;99519.87;1755036;81;21121;-61
2020/12/13 08:03:18;;;;;;;55.73;28.65;;;;;;;0.59;86.17;99524.28;1754512;82;21614;-61
2020/12/13 08:05:46;;;;;;;60.52;29.77;;;;;;;0.55;86.34;99523.06;1754506;81;21678;-62
2020/12/13 08:08:14;;;;;;;42.58;25.50;;;;;;;0.50;86.53;99529.88;1753465;82;21645;-62
2020/12/13 08:10:43;;;;;;;62.70;27.90;;;;;;;0.59;86.28;99522.44;1753538;82;21534;-61
2020/12/13 08:13:11;;;;;;;50.17;27.48;;;;;;;0.61;86.17;99525.70;1758240;80;21572;-61
2020/12/13 08:15:39;;;;;;;39.20;22.42;;;;;;;0.53;86.50;99522.47;1757161;81;21152;-61
2020/12/13 08:18:08;;;;;;;57.80;28.25;;;;;;;0.53;86.56;99517.94;1745318;80;21142;-61
2020/12/13 08:20:39;;;;;;;54.18;30.80;;;;;;;0.61;86.28;99524.88;1717982;83;21158;-61
2020/12/13 08:23:07;;;;;;;49.33;27.37;;;;;;;0.57;86.40;99523.69;1718032;82;21173;-61
2020/12/13 08:25:35;;;;;;;47.53;25.65;;;;;;;0.54;86.63;99517.39;1735340;82;21141;-61
2020/12/13 08:28:06;;;;;;;64.92;33.70;;;;;;;0.62;86.36;99518.50;1745948;80;21153;-61
2020/12/13 08:30:35;;;;;;;52.60;30.17;;;;;;;0.56;86.49;99517.51;1739993;82;21145;-61
2020/12/13 08:33:05;;;;;;;48.95;28.83;;;;;;;0.52;86.71;99512.27;1739913;82;21173;-61
2020/12/13 08:35:33;;;;;;;54.95;30.60;;;;;;;0.60;86.46;99516.56;1709536;82;21184;-62
2020/12/13 08:38:02;;;;;;;61.55;31.10;;;;;;;0.58;86.43;99514.08;1744765;81;21121;-61
2020/12/13 08:40:45;;;;;;;49.95;28.60;;;;;;;0.50;86.75;99513.80;1740660;80;21126;-60
2020/12/13 08:43:19;;;;;;;56.95;31.48;;;;;;;0.57;86.66;99508.95;1741754;81;21185;-61
2020/12/13 08:45:54;;;;;;;50.45;27.90;;;;;;;0.52;86.72;99506.91;1722563;81;21161;-62
2020/12/13 08:48:28;;;;;;;53.55;28.92;;;;;;;0.45;87.04;99506.11;1741132;81;21173;-63
2020/12/13 08:51:09;;;;;;;56.95;31.02;;;;;;;0.60;86.56;99494.62;1738127;80;21892;-61
2020/12/13 08:53:37;;;;;;;65.15;34.20;;;;;;;0.58;86.63;99493.99;1721897;81;21166;-61
2020/12/13 08:56:07;;;;;;;59.73;31.35;;;;;;;0.51;86.90;99499.89;1723076;82;21195;-62
2020/12/13 08:58:49;;;;;;;55.28;27.82;;;;;;;0.62;86.64;99498.41;1739162;81;21207;-62
2020/12/13 09:01:21;;;;;;;57.35;32.05;;;;;;;0.62;86.50;99498.41;1741224;82;21522;-62
2020/12/13 09:03:48;;;;;;;56.13;30.45;;;;;;;0.49;86.92;99503.32;1721125;81;21164;-61
2020/12/13 09:06:29;;;;;;;53.30;29.67;;;;;;;0.57;86.80;99501.72;1739914;82;21561;-61
2020/12/13 09:09:13;;;;;;;48.13;27.60;;;;;;;0.65;86.49;99500.66;1722238;82;21640;-61
2020/12/13 09:11:43;;;;;;;51.40;27.60;;;;;;;0.58;86.70;99493.17;1737422;80;21190;-61
2020/12/13 09:14:11;;;;;;;57.85;30.05;;;;;;;0.61;86.64;99499.44;1718558;82;21157;-61
2020/12/13 09:16:39;;;;;;;49.58;28.10;;;;;;;0.72;86.25;99494.75;1722923;82;21625;-61
2020/12/13 09:19:12;;;;;;;50.73;27.37;;;;;;;0.67;86.31;99499.94;1739759;82;21126;-61
2020/12/13 09:21:46;;;;;;;46.23;23.98;;;;;;;0.62;86.47;99500.58;1742282;80;21176;-61
2020/12/13 09:24:15;;;;;;;52.30;28.87;;;;;;;0.72;86.16;99492.89;1747082;82;21303;-61
2020/12/13 09:27:02;;;;;;;55.28;29.95;;;;;;;0.78;85.94;99492.03;1747122;82;21172;-61
2020/12/13 09:29:31;;;;;;;46.98;25.85;;;;;;;0.70;86.01;99490.95;1738341;82;21181;-61
2020/12/13 09:31:59;;;;;;;42.55;23.65;;;;;;;0.74;85.82;99483.31;1740272;81;21252;-62
2020/12/13 09:34:27;;;;;;;49.48;27.07;;;;;;;0.81;85.48;99480.08;1739850;82;21134;-61
2020/12/13 09:36:54;;;;;;;40.00;23.20;;;;;;;0.73;85.59;99470.95;1741082;82;21232;-61
2020/12/13 09:39:24;;;;;;;36.60;21.95;;;;;;;0.72;85.58;99478.67;1743789;82;21149;-62
2020/12/13 09:41:56;;;;;;;31.70;19.32;;;;;;;0.84;84.99;99467.07;1743134;81;21158;-61
2020/12/13 09:44:24;;;;;;;39.85;22.02;;;;;;;0.85;84.92;99466.56;1741254;82;21554;-61
2020/12/13 09:46:57;;;;;;;30.32;18.37;;;;;;;0.74;85.14;99464.05;1741236;81;21165;-61
2020/12/13 09:49:27;;;;;;;32.55;19.67;;;;;;;0.77;85.08;99473.50;1721840;80;21589;-61
2020/12/13 09:51:59;;;;;;;36.90;21.12;;;;;;;0.80;84.84;99465.03;1743431;82;21636;-61
2020/12/13 09:54:27;;;;;;;34.48;18.87;;;;;;;0.71;85.01;99456.95;1722031;81;21157;-61
2020/12/13 09:56:55;;;;;;;31.87;19.27;;;;;;;0.69;85.16;99462.52;1743957;82;21357;-61
2020/12/13 09:59:23;;;;;;;86.92;48.00;;;;;;;0.75;84.93;99456.28;1742381;80;21206;-61
2020/12/13 10:01:51;;;;;;;55.40;33.28;;;;;;;0.70;85.06;99451.28;1742416;82;21163;-62
2020/12/13 10:04:21;;;;;;;42.00;23.87;;;;;;;0.67;85.20;99449.87;1721045;82;21158;-61
2020/12/13 10:07:05;;;;;;;45.63;28.87;;;;;;;0.79;84.91;99460.70;1690876;84;21142;-61
2020/12/13 10:09:20;;;;;;;59.03;34.70;;;;;;;0.74;84.91;99449.31;1678717;85;21184;-61
2020/12/13 10:11:48;;;;;;;45.85;26.25;;;;;;;0.65;85.28;99457.79;1739311;82;21177;-61
2020/12/13 10:14:16;;;;;;;45.73;25.82;;;;;;;0.75;85.09;99453.61;1741629;82;21133;-62
2020/12/13 10:16:44;;;;;;;62.17;35.95;;;;;;;0.73;85.06;99453.53;1722048;82;21698;-61
2020/12/13 10:19:12;;;;;;;48.05;28.30;;;;;;;0.61;85.40;99460.08;1693999;83;21145;-61
2020/12/13 10:21:40;;;;;;;46.92;27.82;;;;;;;0.74;85.12;99452.50;1710742;83;21149;-61
2020/12/13 10:24:08;;;;;;;40.03;23.07;;;;;;;0.74;85.04;99450.66;1708133;83;21457;-61
2020/12/13 10:26:39;;;;;;;38.17;22.98;;;;;;;0.68;85.29;99450.66;1727237;83;21193;-61
2020/12/13 10:29:07;;;;;;;42.38;24.95;;;;;;;0.71;85.15;99444.35;1724808;83;21331;-61
2020/12/13 10:31:36;;;;;;;44.38;26.68;;;;;;;0.76;84.95;99446.40;1699180;83;21181;-62
2020/12/13 10:34:06;;;;;;;33.92;19.30;;;;;;;0.68;85.17;99440.77;1699108;83;21201;-61
2020/12/13 10:36:35;;;;;;;36.60;21.02;;;;;;;0.62;85.30;99449.67;1727293;83;21196;-61
2020/12/13 10:39:04;;;;;;;36.63;22.05;;;;;;;0.71;85.00;99449.71;1698628;83;21172;-62
2020/12/13 10:41:32;;;;;;;39.48;22.93;;;;;;;0.78;84.78;99452.37;1699479;83;21572;-62
2020/12/13 10:44:00;;;;;;;42.27;24.00;;;;;;;0.71;84.92;99439.00;1697139;83;21930;-63
2020/12/13 10:46:28;;;;;;;43.17;24.20;;;;;;;0.68;85.09;99445.30;1697927;83;21589;-62
2020/12/13 10:48:56;;;;;;;44.73;25.88;;;;;;;0.78;84.73;99451.05;1707838;83;21137;-62
2020/12/13 10:51:24;;;;;;;52.08;27.27;;;;;;;0.66;84.97;99447.39;1699610;83;21589;-62
2020/12/13 10:53:53;;;;;;;42.13;23.73;;;;;;;0.68;85.07;99446.13;1727554;83;21307;-62
2020/12/13 10:56:21;;;;;;;40.43;24.60;;;;;;;0.80;84.67;99448.44;1727408;83;21149;-62
2020/12/13 10:58:49;;;;;;;49.45;27.85;;;;;;;0.82;84.60;99445.53;1674787;83;21689;-62
2020/12/13 11:01:17;;;;;;;41.15;24.37;;;;;;;0.72;84.85;99438.48;1721061;83;21574;-62
2020/12/13 11:03:46;;;;;;;40.10;24.65;;;;;;;0.78;84.73;99443.80;1669664;84;21165;-62
2020/12/13 11:06:14;;;;;;;42.95;24.72;;;;;;;0.85;84.48;99445.13;1698542;83;21196;-62
2020/12/13 11:08:42;;;;;;;49.18;26.93;;;;;;;0.78;84.62;99443.80;1705786;83;21207;-61
2020/12/13 11:11:09;;;;;;;41.20;23.27;;;;;;;0.74;84.79;99441.78;1704127;83;21699;-62
2020/12/13 11:13:38;;;;;;;45.75;26.62;;;;;;;0.81;84.49;99439.89;1718980;83;21587;-61
2020/12/13 11:16:07;;;;;;;37.45;22.35;;;;;;;0.82;84.42;99442.84;1713145;83;21592;-62
2020/12/13 11:18:36;;;;;;;38.80;22.37;;;;;;;0.73;84.66;99440.13;1685570;82;21157;-62
2020/12/13 11:21:04;;;;;;;33.33;22.05;;;;;;;0.80;84.54;99439.06;1722200;82;21133;-62
2020/12/13 11:23:32;;;;;;;35.73;21.37;;;;;;;0.86;84.25;99440.87;1751045;80;21635;-62
2020/12/13 11:26:00;;;;;;;39.35;23.05;;;;;;;0.81;84.40;99446.59;1700295;81;21144;-62
2020/12/13 11:28:28;;;;;;;44.42;26.07;;;;;;;0.76;84.58;99448.56;1752341;80;21155;-60
2020/12/13 11:30:56;;;;;;;34.38;21.80;;;;;;;0.83;84.48;99445.33;1751371;80;21193;-61
2020/12/13 11:33:24;;;;;;;37.45;23.85;;;;;;;0.92;84.08;99444.56;1750374;80;21330;-61
2020/12/13 11:35:53;;;;;;;50.33;32.50;;;;;;;0.86;84.21;99442.20;1749752;80;21181;-60
2020/12/13 11:38:21;;;;;;;48.10;27.90;;;;;;;0.77;84.39;99442.17;1750985;80;21129;-61
2020/12/13 11:40:49;;;;;;;37.75;24.45;;;;;;;0.83;84.23;99437.80;1752897;81;21172;-61
2020/12/13 11:43:17;;;;;;;40.58;25.72;;;;;;;0.91;83.86;99433.53;1751582;80;21275;-60
2020/12/13 11:45:45;;;;;;;41.18;26.23;;;;;;;0.87;83.98;99439.02;1751243;80;21188;-61